RKSO/OSN METAR and TAF weather

Enter ICAO airport designator
Station Type Date Time Source
RKSO METAR 2019/08/25 17:58 UTC NOAA

RKSO 251758Z 09003KT 6SM BR CLR 19/18 A2992 RMK AO2A SLP134 T01930180 10225 20193 55003 $


Station Type Date Time Source
RKSO Decoded METAR 2019/08/25 17:58 UTC NOAA

Station name not available
Aug 25, 2019 - 01:58 PM EDT / 2019.08.25 1758 UTC
Wind: from the E (090 degrees) at 3 MPH (3 KT):0
Visibility: 6 mile(s):0
Sky conditions: clear
Weather: mist
Temperature: 66.7 F (19.3 C)
Dew Point: 64.4 F (18.0 C)
Relative Humidity: 92%
Pressure (altimeter): 29.92 in. Hg (1013 hPa)
Pressure tendency: 0.01 inches (0.3 hPa) lower than three hours ago
ob: RKSO 251758Z 09003KT 6SM BR CLR 19/18 A2992 RMK AO2A SLP134 T01930180 10225 20193 55003
cycle: 18

Station Type Date Time Source
RKSO TAF 2019/08/25 11:09 UTC NOAA

TAF RKSO 251100Z 2511/2617 VRB06KT 9999 FEW030 QNH2987INS
BECMG 2517/2518 VRB06KT 8000 BR FEW030 QNH2991INS
BECMG 2601/2602 14009KT 9999 NSW SCT030 SCT200 QNH2984INS TX32/2603Z TN21/2522Z

Example: see airport list